createdAt,value
2018-02-21T00:00:56.454Z,99.99
2018-02-21T00:02:06.445Z,99.99
2018-02-21T00:03:16.168Z,99.99
2018-02-21T00:04:26.152Z,99.99
2018-02-21T00:05:35.618Z,99.99
2018-02-21T00:06:45.620Z,99.99
2018-02-21T00:07:55.337Z,99.99
2018-02-21T00:09:05.384Z,99.99
2018-02-21T00:10:15.371Z,99.99
2018-02-21T00:11:25.375Z,99.99
2018-02-21T00:12:35.361Z,99.99
2018-02-21T00:13:45.387Z,99.99
2018-02-21T00:14:54.842Z,99.99
2018-02-21T00:16:04.565Z,99.99
2018-02-21T00:17:14.555Z,99.99
2018-02-21T00:18:24.588Z,99.99
2018-02-21T00:19:34.582Z,99.99
2018-02-21T00:20:44.308Z,99.99
2018-02-21T00:21:54.030Z,99.99
2018-02-21T00:23:04.031Z,99.99
2018-02-21T00:24:13.484Z,99.99
2018-02-21T00:25:23.206Z,99.99
2018-02-21T00:26:33.195Z,99.99
2018-02-21T00:27:42.643Z,99.99
2018-02-21T00:28:52.640Z,99.99
2018-02-21T00:30:02.624Z,99.99
2018-02-21T00:31:12.607Z,99.99
2018-02-21T00:32:22.646Z,99.99
2018-02-21T00:33:32.372Z,99.99
2018-02-21T00:34:42.103Z,99.99
2018-02-21T00:35:51.837Z,99.99
2018-02-21T00:37:01.826Z,99.99
2018-02-21T00:38:11.820Z,99.99
2018-02-21T00:39:21.540Z,99.99
2018-02-21T00:40:30.993Z,99.99
2018-02-21T00:41:40.988Z,99.99
2018-02-21T00:42:50.974Z,99.99
2018-02-21T00:44:00.961Z,99.99
2018-02-21T00:45:10.686Z,99.99
2018-02-21T00:46:20.400Z,99.99
2018-02-21T00:47:30.386Z,99.99
2018-02-21T00:48:40.381Z,99.99
2018-02-21T00:49:49.884Z,99.99
2018-02-21T00:50:59.872Z,99.99
2018-02-21T00:52:09.659Z,99.99
2018-02-21T00:53:19.716Z,99.99
2018-02-21T00:54:29.705Z,99.99
2018-02-21T00:55:39.427Z,99.99
2018-02-21T00:56:49.413Z,99.99
2018-02-21T00:57:59.155Z,99.99
2018-02-21T00:59:09.149Z,99.99
2018-02-21T01:00:19.142Z,99.99
2018-02-21T01:01:29.135Z,99.99
2018-02-21T01:02:39.127Z,99.99
2018-02-21T01:03:49.115Z,99.99
2018-02-21T01:04:59.111Z,99.99
2018-02-21T01:06:09.107Z,99.99
2018-02-21T01:07:19.097Z,99.99
2018-02-21T01:08:28.550Z,99.99
2018-02-21T01:09:38.534Z,99.99
2018-02-21T01:10:48.521Z,99.99
2018-02-21T01:11:58.507Z,99.99
2018-02-21T01:13:08.234Z,99.99
2018-02-21T01:14:18.223Z,99.99
2018-02-21T01:15:27.946Z,99.99
2018-02-21T01:16:37.661Z,99.99
2018-02-21T01:17:47.383Z,99.99
2018-02-21T01:18:56.836Z,99.99
2018-02-21T01:20:06.562Z,99.99
2018-02-21T01:21:16.555Z,99.99
2018-02-21T01:22:26.279Z,99.99
2018-02-21T01:23:36.268Z,99.99
2018-02-21T01:24:46.257Z,99.99
2018-02-21T01:25:56.248Z,99.99
2018-02-21T01:27:06.231Z,99.99
2018-02-21T01:28:15.950Z,99.99
2018-02-21T01:29:25.937Z,99.99
2018-02-21T01:30:35.662Z,99.99
2018-02-21T01:31:45.384Z,99.99
2018-02-21T01:32:55.377Z,99.99
2018-02-21T01:34:05.383Z,99.99
2018-02-21T01:35:15.365Z,99.99
2018-02-21T01:36:25.086Z,99.99
2018-02-21T01:37:35.074Z,99.99
2018-02-21T01:38:44.803Z,99.99
2018-02-21T01:39:54.519Z,99.99
2018-02-21T01:41:04.513Z,99.99
2018-02-21T01:42:14.547Z,99.99
2018-02-21T01:43:24.272Z,99.99
2018-02-21T01:44:34.252Z,99.99
2018-02-21T01:45:44.241Z,99.99
2018-02-21T01:46:54.227Z,99.99
2018-02-21T01:48:03.947Z,99.99
2018-02-21T01:49:13.935Z,99.99
2018-02-21T01:50:23.970Z,99.99
2018-02-21T01:51:33.696Z,99.99
2018-02-21T01:52:43.680Z,99.99
2018-02-21T01:53:53.663Z,99.99
2018-02-21T01:55:03.659Z,99.99
2018-02-21T01:56:13.108Z,99.99
2018-02-21T01:57:23.093Z,99.99
2018-02-21T01:58:33.076Z,99.99
2018-02-21T01:59:42.809Z,99.99
2018-02-21T02:00:52.796Z,99.99
2018-02-21T02:02:02.515Z,99.99
2018-02-21T02:03:12.240Z,99.99
2018-02-21T02:04:22.231Z,99.99
2018-02-21T02:05:32.055Z,99.99
2018-02-21T02:06:42.044Z,99.99
2018-02-21T02:07:51.768Z,99.99
2018-02-21T02:09:01.486Z,99.99
2018-02-21T02:10:11.486Z,99.99
2018-02-21T02:11:21.489Z,99.99
2018-02-21T02:12:31.214Z,99.99
2018-02-21T02:13:40.933Z,99.99
2018-02-21T02:14:50.939Z,99.99
2018-02-21T02:16:00.920Z,99.99
2018-02-21T02:17:10.638Z,99.99
2018-02-21T02:18:20.368Z,99.99
2018-02-21T02:19:30.356Z,99.99
2018-02-21T02:20:40.075Z,99.99
2018-02-21T02:21:49.793Z,99.99
2018-02-21T02:22:59.828Z,99.99
2018-02-21T02:24:09.550Z,99.99
2018-02-21T02:25:19.539Z,99.99
2018-02-21T02:26:29.255Z,99.99
2018-02-21T02:27:39.242Z,99.99
2018-02-21T02:28:48.964Z,99.99
2018-02-21T02:29:58.953Z,99.99
2018-02-21T02:31:08.961Z,99.99
2018-02-21T02:32:18.954Z,99.99
2018-02-21T02:33:28.691Z,99.99
2018-02-21T02:34:38.688Z,99.99
2018-02-21T02:35:48.685Z,99.99
2018-02-21T02:36:58.682Z,99.99
2018-02-21T02:38:08.674Z,99.99
2018-02-21T02:39:18.671Z,99.99
2018-02-21T02:40:28.499Z,99.99
2018-02-21T02:41:38.505Z,99.99
2018-02-21T02:42:48.514Z,99.99
2018-02-21T02:43:58.260Z,99.99
2018-02-21T02:45:08.004Z,99.99
2018-02-21T02:46:18.003Z,99.99
2018-02-21T02:47:27.995Z,99.99
2018-02-21T02:48:37.719Z,99.99
2018-02-21T02:49:47.711Z,99.99
2018-02-21T02:50:57.707Z,99.99
2018-02-21T02:52:07.477Z,99.99
2018-02-21T02:53:17.473Z,99.99
2018-02-21T02:54:26.936Z,99.99
2018-02-21T02:55:36.670Z,99.99
2018-02-21T02:56:45.878Z,99.99
2018-02-21T02:57:55.932Z,99.99
2018-02-21T02:59:05.922Z,99.99
2018-02-21T03:00:15.648Z,99.99
2018-02-21T03:01:25.365Z,99.99
2018-02-21T03:02:35.089Z,99.99
2018-02-21T03:03:45.092Z,99.99
2018-02-21T03:04:55.085Z,99.99
2018-02-21T03:06:04.540Z,99.99
2018-02-21T03:07:14.268Z,99.99
2018-02-21T03:08:23.986Z,99.99
2018-02-21T03:09:33.706Z,99.99
2018-02-21T03:10:43.692Z,99.99
2018-02-21T03:11:53.687Z,99.99
2018-02-21T03:13:03.411Z,99.99
2018-02-21T03:14:13.397Z,99.99
2018-02-21T03:15:23.392Z,99.99
2018-02-21T03:16:33.382Z,99.99
2018-02-21T03:17:43.107Z,99.99
2018-02-21T03:18:52.567Z,99.99
2018-02-21T03:20:02.284Z,99.99
2018-02-21T03:21:12.008Z,99.99
2018-02-21T03:22:21.996Z,99.99
2018-02-21T03:23:31.985Z,99.99
2018-02-21T03:24:41.706Z,99.99
2018-02-21T03:25:51.691Z,99.99
2018-02-21T03:27:01.672Z,99.99
2018-02-21T03:28:11.388Z,99.99
2018-02-21T03:29:21.375Z,99.99
2018-02-21T03:30:31.098Z,99.99
2018-02-21T03:31:41.104Z,99.99
2018-02-21T03:32:51.093Z,99.99
2018-02-21T03:34:01.092Z,99.99
2018-02-21T03:35:11.079Z,99.99
2018-02-21T03:36:20.810Z,99.99
2018-02-21T03:37:30.793Z,99.99
2018-02-21T03:38:40.774Z,99.99
2018-02-21T03:39:50.760Z,99.99
2018-02-21T03:41:00.746Z,99.99
2018-02-21T03:42:10.474Z,99.99
2018-02-21T03:43:20.461Z,99.99
2018-02-21T03:44:30.197Z,99.99
2018-02-21T03:45:39.913Z,99.99
2018-02-21T03:46:49.898Z,99.99
2018-02-21T03:47:59.889Z,99.99
2018-02-21T03:49:09.880Z,99.99
2018-02-21T03:50:19.605Z,99.99
2018-02-21T03:51:29.325Z,99.99
2018-02-21T03:52:38.775Z,99.99
2018-02-21T03:53:48.766Z,99.99
2018-02-21T03:54:58.754Z,99.99
2018-02-21T03:56:08.527Z,99.99
2018-02-21T03:57:18.674Z,99.99
2018-02-21T03:58:28.660Z,99.99
2018-02-21T03:59:38.645Z,99.99
2018-02-21T04:00:48.630Z,99.99
2018-02-21T04:05:08.829Z,99.99
2018-02-21T04:06:18.608Z,99.99
2018-02-21T04:07:28.604Z,99.99
2018-02-21T04:08:38.587Z,99.99
2018-02-21T04:09:48.306Z,99.99
2018-02-21T04:10:57.769Z,99.99
2018-02-21T04:12:07.751Z,99.99
2018-02-21T04:13:17.744Z,99.99
2018-02-21T04:14:27.466Z,99.99
2018-02-21T04:15:37.499Z,99.99
2018-02-21T04:16:47.224Z,99.99
2018-02-21T04:17:57.207Z,99.99
2018-02-21T04:19:06.667Z,99.99
2018-02-21T04:20:16.661Z,99.99
2018-02-21T04:21:26.649Z,99.99
2018-02-21T04:22:36.374Z,99.99
2018-02-21T04:23:46.106Z,99.99
2018-02-21T04:24:56.090Z,99.99
2018-02-21T04:26:06.077Z,99.99
2018-02-21T04:27:15.800Z,99.99
2018-02-21T04:28:25.526Z,99.99
2018-02-21T04:29:35.514Z,99.99
2018-02-21T04:30:44.971Z,99.99
2018-02-21T04:31:54.961Z,99.99
2018-02-21T04:33:04.689Z,99.99
2018-02-21T04:34:14.681Z,99.99
2018-02-21T04:35:24.664Z,99.99
2018-02-21T04:36:34.651Z,99.99
2018-02-21T04:37:44.370Z,99.99
2018-02-21T04:38:54.368Z,99.99
2018-02-21T04:40:04.096Z,99.99
2018-02-21T04:41:14.080Z,99.99
2018-02-21T04:42:24.071Z,99.99
2018-02-21T04:43:33.534Z,99.99
2018-02-21T04:44:43.057Z,99.99
2018-02-21T04:45:52.864Z,99.99
2018-02-21T04:47:02.616Z,99.99
2018-02-21T04:48:12.603Z,99.99
2018-02-21T04:49:22.343Z,99.99
2018-02-21T04:50:32.424Z,99.99
2018-02-21T04:51:42.148Z,99.99
2018-02-21T04:52:52.140Z,99.99
2018-02-21T04:54:02.127Z,99.99
2018-02-21T04:55:12.112Z,99.99
2018-02-21T04:56:22.096Z,99.99
2018-02-21T04:57:32.086Z,99.99
2018-02-21T04:58:42.070Z,99.99
2018-02-21T04:59:51.798Z,99.99
2018-02-21T05:01:01.524Z,99.99
2018-02-21T05:02:11.242Z,99.99
2018-02-21T05:03:21.227Z,99.99
2018-02-21T05:04:30.949Z,99.99
2018-02-21T05:05:40.943Z,99.99
2018-02-21T05:06:50.661Z,99.99
2018-02-21T05:08:00.707Z,99.99
2018-02-21T05:09:10.431Z,99.99
2018-02-21T05:10:20.421Z,99.99
2018-02-21T05:11:30.141Z,99.99
2018-02-21T05:12:39.592Z,99.99
2018-02-21T05:13:49.419Z,99.99
2018-02-21T05:14:59.407Z,99.99
2018-02-21T05:16:09.394Z,99.99
2018-02-21T05:17:19.386Z,99.99
2018-02-21T05:18:29.372Z,99.99
2018-02-21T05:19:39.361Z,99.99
2018-02-21T05:20:49.077Z,99.99
2018-02-21T05:21:58.796Z,99.99
2018-02-21T05:23:08.782Z,99.99
2018-02-21T05:24:18.506Z,99.99
2018-02-21T05:25:28.231Z,99.99
2018-02-21T05:26:37.681Z,99.99
2018-02-21T05:27:47.692Z,99.99
2018-02-21T05:28:57.680Z,99.99
2018-02-21T05:30:07.403Z,99.99
2018-02-21T05:31:17.402Z,99.99
2018-02-21T05:32:27.391Z,99.99
2018-02-21T05:33:37.119Z,99.99
2018-02-21T05:34:47.101Z,99.99
2018-02-21T05:35:57.086Z,99.99
2018-02-21T05:37:07.080Z,99.99
2018-02-21T05:38:16.584Z,99.99
2018-02-21T05:39:26.569Z,99.99
2018-02-21T05:40:36.559Z,99.99
2018-02-21T05:41:46.547Z,99.99
2018-02-21T05:42:56.542Z,99.99
2018-02-21T05:44:06.533Z,99.99
2018-02-21T05:45:16.520Z,99.99
2018-02-21T05:46:26.506Z,99.99
2018-02-21T05:47:36.494Z,99.99
2018-02-21T05:48:46.490Z,99.99
2018-02-21T05:49:56.477Z,99.99
2018-02-21T05:51:05.952Z,99.99
2018-02-21T05:52:15.945Z,99.99
2018-02-21T05:53:25.937Z,99.99
2018-02-21T05:54:36.026Z,99.99
2018-02-21T05:55:46.022Z,99.99
2018-02-21T05:56:56.063Z,99.99
2018-02-21T05:58:06.049Z,99.99
2018-02-21T05:59:15.773Z,99.99
2018-02-21T06:00:25.758Z,99.99
2018-02-21T06:01:35.747Z,99.99
2018-02-21T06:02:45.731Z,99.99
2018-02-21T06:03:55.723Z,99.99
2018-02-21T06:05:05.478Z,99.99
2018-02-21T06:06:15.563Z,99.99
2018-02-21T06:07:25.552Z,99.99
2018-02-21T06:08:35.547Z,99.99
2018-02-21T06:09:45.270Z,99.99
2018-02-21T06:10:54.988Z,99.99
2018-02-21T06:12:04.181Z,99.99
2018-02-21T06:13:14.162Z,99.99
2018-02-21T06:14:24.163Z,99.99
2018-02-21T06:15:34.152Z,99.99
2018-02-21T06:16:43.872Z,99.99
2018-02-21T06:17:53.858Z,99.99
2018-02-21T06:19:03.582Z,99.99
2018-02-21T06:20:13.304Z,99.99
2018-02-21T06:21:23.298Z,99.99
2018-02-21T06:22:33.019Z,99.99
2018-02-21T06:23:42.472Z,99.99
2018-02-21T06:24:52.462Z,99.99
2018-02-21T06:26:02.327Z,99.99
2018-02-21T06:27:12.313Z,99.99
2018-02-21T06:28:22.036Z,99.99
2018-02-21T06:29:31.554Z,99.99
2018-02-21T06:30:41.273Z,99.99
2018-02-21T06:31:51.263Z,99.99
2018-02-21T06:33:01.250Z,99.99
2018-02-21T06:34:11.259Z,99.99
2018-02-21T06:35:20.721Z,99.99
2018-02-21T06:36:30.716Z,99.99
2018-02-21T06:37:40.173Z,99.99
2018-02-21T06:38:49.629Z,99.99
2018-02-21T06:39:59.350Z,99.99
2018-02-21T06:41:09.076Z,99.99
2018-02-21T06:42:19.060Z,99.99
2018-02-21T06:43:28.833Z,99.99
2018-02-21T06:44:38.837Z,99.99
2018-02-21T06:45:48.296Z,99.99
2018-02-21T06:46:58.035Z,99.99
2018-02-21T06:48:08.019Z,99.99
2018-02-21T06:49:18.012Z,99.99
2018-02-21T06:50:27.732Z,99.99
2018-02-21T06:51:37.722Z,99.99
2018-02-21T06:52:47.176Z,99.99
2018-02-21T06:53:57.177Z,99.99
2018-02-21T06:55:06.907Z,99.99
2018-02-21T06:56:16.891Z,99.99
2018-02-21T06:57:26.882Z,99.99
2018-02-21T06:58:36.339Z,99.99
2018-02-21T06:59:46.076Z,99.99
2018-02-21T07:00:56.063Z,99.99
2018-02-21T07:02:05.793Z,99.99
2018-02-21T07:03:15.518Z,99.99
2018-02-21T07:04:25.522Z,99.99
2018-02-21T07:05:35.510Z,99.99
2018-02-21T07:06:45.232Z,99.99
2018-02-21T07:07:55.218Z,99.99
2018-02-21T07:09:05.215Z,99.99
2018-02-21T07:10:15.205Z,99.99
2018-02-21T07:11:24.933Z,99.99
2018-02-21T07:12:34.661Z,99.99
2018-02-21T07:13:44.667Z,99.99
2018-02-21T07:14:54.389Z,99.99
2018-02-21T07:16:03.892Z,99.99
2018-02-21T07:17:13.614Z,99.99
2018-02-21T07:18:23.604Z,99.99
2018-02-21T07:19:33.589Z,99.99
2018-02-21T07:20:43.622Z,99.99
2018-02-21T07:21:53.614Z,99.99
2018-02-21T07:23:03.336Z,99.99
2018-02-21T07:24:13.326Z,99.99
2018-02-21T07:25:23.309Z,99.99
2018-02-21T07:26:32.502Z,99.99
2018-02-21T07:27:42.223Z,99.99
2018-02-21T07:28:52.222Z,99.99
2018-02-21T07:30:01.681Z,99.99
2018-02-21T07:31:11.697Z,99.99
2018-02-21T07:32:21.691Z,99.99
2018-02-21T07:33:31.471Z,99.99
2018-02-21T07:34:41.458Z,99.99
2018-02-21T07:35:51.178Z,99.99
2018-02-21T07:37:00.909Z,99.99
2018-02-21T07:38:10.941Z,99.99
2018-02-21T07:39:20.394Z,99.99
2018-02-21T07:40:30.386Z,99.99
2018-02-21T07:41:40.370Z,99.99
2018-02-21T07:42:50.360Z,99.99
2018-02-21T07:44:00.091Z,99.99
2018-02-21T07:45:09.435Z,99.99
2018-02-21T07:46:19.472Z,99.99
2018-02-21T07:47:29.470Z,99.99
2018-02-21T07:48:39.190Z,99.99
2018-02-21T07:49:49.179Z,99.99
2018-02-21T07:50:59.169Z,99.99
2018-02-21T07:52:09.029Z,99.99
2018-02-21T07:53:18.752Z,99.99
2018-02-21T07:54:28.745Z,99.99
2018-02-21T07:55:38.466Z,99.99
2018-02-21T07:56:48.550Z,99.99
2018-02-21T07:57:58.543Z,99.99
2018-02-21T07:59:08.554Z,99.99
2018-02-21T08:00:18.544Z,99.99
2018-02-21T08:01:28.536Z,99.99
2018-02-21T08:02:37.987Z,99.99
2018-02-21T08:03:47.980Z,99.99
2018-02-21T08:04:57.700Z,99.99
2018-02-21T08:06:07.555Z,99.99
2018-02-21T08:07:17.016Z,99.99
2018-02-21T08:08:27.004Z,99.99
2018-02-21T08:09:36.997Z,99.99
2018-02-21T08:10:46.991Z,99.99
2018-02-21T08:11:56.975Z,99.99
2018-02-21T08:13:06.427Z,99.99
2018-02-21T08:14:16.155Z,99.99
2018-02-21T08:15:26.205Z,99.99
2018-02-21T08:16:36.198Z,99.99
2018-02-21T08:17:46.187Z,99.99
2018-02-21T08:18:55.912Z,99.99
2018-02-21T08:20:05.637Z,99.99
2018-02-21T08:21:15.624Z,99.99
2018-02-21T08:22:25.343Z,99.99
2018-02-21T08:23:35.334Z,99.99
2018-02-21T08:24:45.324Z,99.99
2018-02-21T08:25:55.314Z,99.99
2018-02-21T08:27:05.320Z,99.99
2018-02-21T08:28:15.093Z,99.99
2018-02-21T08:29:25.433Z,99.99
2018-02-21T08:30:35.154Z,99.99
2018-02-21T08:31:45.142Z,99.99
2018-02-21T08:32:55.136Z,99.99
2018-02-21T08:34:04.867Z,99.99
2018-02-21T08:35:14.864Z,99.99
2018-02-21T08:36:24.593Z,99.99
2018-02-21T08:37:34.586Z,99.99
2018-02-21T08:38:44.572Z,99.99
2018-02-21T08:39:54.296Z,99.99
2018-02-21T08:41:04.291Z,99.99
2018-02-21T08:42:14.013Z,99.99
2018-02-21T08:43:24.013Z,99.99
2018-02-21T08:44:33.996Z,99.99
2018-02-21T08:45:43.716Z,99.99
2018-02-21T08:46:53.433Z,99.99
2018-02-21T08:48:03.429Z,99.99
2018-02-21T08:49:13.162Z,99.99
2018-02-21T08:50:23.145Z,99.99
2018-02-21T08:51:33.133Z,99.99
2018-02-21T08:52:42.856Z,99.99
2018-02-21T08:53:52.574Z,99.99
2018-02-21T08:55:02.561Z,99.99
2018-02-21T08:56:12.015Z,99.99
2018-02-21T08:57:21.735Z,99.99
2018-02-21T08:58:31.724Z,99.99
2018-02-21T08:59:41.712Z,99.99
2018-02-21T09:00:51.172Z,99.99
2018-02-21T09:02:01.167Z,99.99
2018-02-21T09:03:11.154Z,99.99
2018-02-21T09:04:21.151Z,99.99
2018-02-21T09:05:30.874Z,99.99
2018-02-21T09:06:40.960Z,99.99
2018-02-21T09:07:50.944Z,99.99
2018-02-21T09:09:00.404Z,99.99
2018-02-21T09:10:10.398Z,99.99
2018-02-21T09:11:20.384Z,99.99
2018-02-21T09:12:30.106Z,99.99
2018-02-21T09:13:39.828Z,99.99
2018-02-21T09:14:49.825Z,99.99
2018-02-21T09:15:59.555Z,99.99
2018-02-21T09:17:09.274Z,99.99
2018-02-21T09:18:18.862Z,99.99
2018-02-21T09:19:28.587Z,99.99
2018-02-21T09:20:38.573Z,99.99
2018-02-21T09:21:48.616Z,99.99
2018-02-21T09:22:58.647Z,99.99
2018-02-21T09:24:08.695Z,99.99
2018-02-21T09:25:18.688Z,99.99
2018-02-21T09:26:28.469Z,99.99
2018-02-21T09:27:38.462Z,99.99
2018-02-21T09:28:48.192Z,99.99
2018-02-21T09:29:58.286Z,99.99
2018-02-21T09:31:08.012Z,99.99
2018-02-21T09:32:17.215Z,99.99
2018-02-21T09:33:27.214Z,99.99
2018-02-21T09:34:36.942Z,99.99
2018-02-21T09:35:46.462Z,99.99
2018-02-21T09:36:56.450Z,99.99
2018-02-21T09:38:06.604Z,99.99
2018-02-21T09:39:16.323Z,99.99
2018-02-21T09:40:26.314Z,99.99
2018-02-21T09:41:36.305Z,99.99
2018-02-21T09:42:46.291Z,99.99
2018-02-21T09:43:56.296Z,99.99
2018-02-21T09:45:06.028Z,99.99
2018-02-21T09:46:15.761Z,99.99
2018-02-21T09:47:25.762Z,99.99
2018-02-21T09:48:35.749Z,99.99
2018-02-21T09:49:45.472Z,99.99
2018-02-21T09:50:55.196Z,99.99
2018-02-21T09:52:05.192Z,99.99
2018-02-21T09:53:14.921Z,99.99
2018-02-21T09:54:24.638Z,99.99
2018-02-21T09:55:34.105Z,99.99
2018-02-21T09:56:44.093Z,99.99
2018-02-21T09:57:53.819Z,99.99
2018-02-21T09:59:03.273Z,99.99
2018-02-21T10:00:13.271Z,99.99
2018-02-21T10:01:23.295Z,99.99
2018-02-21T10:02:33.023Z,99.99
2018-02-21T10:03:43.019Z,99.99
2018-02-21T10:04:53.006Z,99.99
2018-02-21T10:06:02.471Z,99.99
2018-02-21T10:07:12.256Z,99.99
2018-02-21T10:08:21.713Z,99.99
2018-02-21T10:09:31.706Z,99.99
2018-02-21T10:10:41.699Z,99.99
2018-02-21T10:11:51.430Z,99.99
2018-02-21T10:13:01.441Z,99.99
2018-02-21T10:14:11.169Z,99.99
2018-02-21T10:15:21.159Z,99.99
2018-02-21T10:16:31.150Z,99.99
2018-02-21T10:17:41.138Z,99.99
2018-02-21T10:18:50.594Z,99.99
2018-02-21T10:20:00.592Z,99.99
2018-02-21T10:21:10.060Z,99.99
2018-02-21T10:22:19.534Z,99.99
2018-02-21T10:23:29.260Z,99.99
2018-02-21T10:24:39.259Z,99.99
2018-02-21T10:25:49.270Z,99.99
2018-02-21T10:26:59.304Z,99.99
2018-02-21T10:28:09.043Z,99.99
2018-02-21T10:29:19.035Z,99.99
2018-02-21T10:30:29.024Z,99.99
2018-02-21T10:31:39.014Z,99.99
2018-02-21T10:32:49.015Z,99.99
2018-02-21T10:33:59.057Z,99.99
2018-02-21T10:35:08.783Z,99.99
2018-02-21T10:36:18.778Z,99.99
2018-02-21T10:37:28.508Z,99.99
2018-02-21T10:38:38.233Z,99.99
2018-02-21T10:39:47.957Z,99.99
2018-02-21T10:40:57.684Z,99.65
2018-02-21T10:42:06.882Z,99.65
2018-02-21T10:43:16.353Z,99.08
2018-02-21T10:44:26.356Z,99.27
2018-02-21T10:45:36.086Z,98.8
2018-02-21T10:46:45.819Z,98.33
2018-02-21T10:47:55.819Z,98.04
2018-02-21T10:49:05.543Z,98.23
2018-02-21T10:50:15.277Z,98.38
2018-02-21T10:51:25.280Z,97.24
2018-02-21T10:52:34.743Z,97.53
2018-02-21T10:53:44.734Z,98
2018-02-21T10:54:54.459Z,98.19
2018-02-21T10:56:04.186Z,96.96
2018-02-21T10:57:14.283Z,96.68
2018-02-21T10:58:23.757Z,96.39
2018-02-21T10:59:33.759Z,95.92
2018-02-21T11:00:43.544Z,95.54
2018-02-21T11:01:53.302Z,96.01
2018-02-21T11:03:03.038Z,95.64
2018-02-21T11:04:13.041Z,95.92
2018-02-21T11:05:22.242Z,95.83
2018-02-21T11:06:32.249Z,95.73
2018-02-21T11:07:41.989Z,95.64
2018-02-21T11:08:51.773Z,95.12
2018-02-21T11:10:01.237Z,95.4
2018-02-21T11:11:11.334Z,95.59
2018-02-21T11:12:21.333Z,95.31
2018-02-21T11:13:31.329Z,95.21
2018-02-21T11:14:41.054Z,95.5
2018-02-21T11:15:50.826Z,95.31
2018-02-21T11:17:00.552Z,95.78
2018-02-21T11:18:10.553Z,96.06
2018-02-21T11:19:20.553Z,95.97
2018-02-21T11:20:30.334Z,95.45
2018-02-21T11:21:40.080Z,95.36
2018-02-21T11:22:50.076Z,95.26
2018-02-21T11:24:00.075Z,95.17
2018-02-21T11:25:10.083Z,94.6
2018-02-21T11:26:19.816Z,94.56
2018-02-21T11:27:29.553Z,93.99
2018-02-21T11:28:39.547Z,93.32
2018-02-21T11:29:49.559Z,93.61
2018-02-21T11:30:59.292Z,92.85
2018-02-21T11:32:09.076Z,92.61
2018-02-21T11:33:19.086Z,92.14
2018-02-21T11:34:29.093Z,91.96
2018-02-21T11:35:39.094Z,91.39
2018-02-21T11:36:49.089Z,90.82
2018-02-21T11:37:58.869Z,90.25
2018-02-21T11:39:08.616Z,90.4
2018-02-21T11:40:18.344Z,90.44
2018-02-21T11:41:28.074Z,89.92
2018-02-21T11:42:37.801Z,89.26
2018-02-21T11:43:47.631Z,89.17
2018-02-21T11:44:57.628Z,88.6
2018-02-21T11:46:07.361Z,88.7
2018-02-21T11:47:17.356Z,88.6
2018-02-21T11:48:26.552Z,88.51
2018-02-21T11:49:36.031Z,88.7
2018-02-21T11:50:46.029Z,88.13
2018-02-21T11:51:56.059Z,88.32
2018-02-21T11:53:05.521Z,88.51
2018-02-21T11:54:14.984Z,88.79
2018-02-21T11:55:24.716Z,89.73
2018-02-21T11:56:34.450Z,89.92
2018-02-21T11:57:44.507Z,90.68
2018-02-21T11:58:54.311Z,89.31
2018-02-21T12:00:04.321Z,87.51
2018-02-21T12:01:14.052Z,87.89
2018-02-21T12:02:24.051Z,87.55
2018-02-21T12:03:34.043Z,87.13
2018-02-21T12:04:44.117Z,87.13
2018-02-21T12:05:54.479Z,87.18
2018-02-21T12:07:04.491Z,86.94
2018-02-21T12:08:14.495Z,86.29
2018-02-21T12:09:24.225Z,86.57
2018-02-21T12:10:34.231Z,86.94
2018-02-21T12:11:44.237Z,86.1
2018-02-21T12:12:54.241Z,85.62
2018-02-21T12:14:03.975Z,85.81
2018-02-21T12:15:13.724Z,85.05
2018-02-21T12:16:23.727Z,85.72
2018-02-21T12:17:33.193Z,85.81
2018-02-21T12:18:43.003Z,85.72
2018-02-21T12:19:52.735Z,86
2018-02-21T12:21:02.461Z,86.19
2018-02-21T12:22:12.458Z,85.81
2018-02-21T12:23:22.197Z,86
2018-02-21T12:24:32.192Z,85.72
2018-02-21T12:25:42.255Z,85.72
2018-02-21T12:26:52.258Z,86.1
2018-02-21T12:28:01.451Z,86.66
2018-02-21T12:29:11.184Z,87.13
2018-02-21T12:30:21.537Z,86.85
2018-02-21T12:31:31.545Z,86.57
2018-02-21T12:32:41.546Z,86
2018-02-21T12:33:51.546Z,85.72
2018-02-21T12:35:01.333Z,85.81
2018-02-21T12:36:11.334Z,85.43
2018-02-21T12:37:20.528Z,85.53
2018-02-21T12:38:30.529Z,84.81
2018-02-21T12:39:39.994Z,84.16
2018-02-21T12:40:50.001Z,83.78
2018-02-21T12:41:59.470Z,84.06
2018-02-21T12:43:09.207Z,84.53
2018-02-21T12:44:19.208Z,84.91
2018-02-21T12:45:28.975Z,85.28
2018-02-21T12:46:38.715Z,85.19
2018-02-21T12:47:48.818Z,85.38
2018-02-21T12:48:58.822Z,85.38
2018-02-21T12:50:08.647Z,84.63
2018-02-21T12:51:18.958Z,84.53
2018-02-21T12:52:28.960Z,84.81
2018-02-21T12:53:38.695Z,85.28
2018-02-21T12:54:48.693Z,84.63
2018-02-21T12:55:58.694Z,85.28
2018-02-21T12:57:08.419Z,83.87
2018-02-21T12:58:17.884Z,84.1
2018-02-21T12:59:27.612Z,83.44
2018-02-21T13:00:37.610Z,83.82
2018-02-21T13:01:47.345Z,83.15
2018-02-21T13:02:57.342Z,82.78
2018-02-21T13:04:07.348Z,82.12
2018-02-21T13:05:17.341Z,82.31
2018-02-21T13:06:27.343Z,82.45
2018-02-21T13:07:37.100Z,82.35
2018-02-21T13:08:47.195Z,82.35
2018-02-21T13:09:56.928Z,82.45
2018-02-21T13:11:06.929Z,82.45
2018-02-21T13:12:16.936Z,83.11
2018-02-21T13:13:26.931Z,83.11
2018-02-21T13:14:36.396Z,83.68
2018-02-21T13:15:46.405Z,84.44
2018-02-21T13:16:55.876Z,83.21
2018-02-21T13:18:05.872Z,82.4
2018-02-21T13:19:15.605Z,82.78
2018-02-21T13:20:25.606Z,82.4
2018-02-21T13:21:35.332Z,81.83
2018-02-21T13:22:45.100Z,81.45
2018-02-21T13:23:55.104Z,80.98
2018-02-21T13:25:04.875Z,80.79
2018-02-21T13:26:14.870Z,80.98
2018-02-21T13:27:24.602Z,80.51
2018-02-21T13:28:34.598Z,80.41
2018-02-21T13:29:44.325Z,80.41
2018-02-21T13:30:54.327Z,81.45
2018-02-21T13:32:04.324Z,81.93
2018-02-21T13:33:13.794Z,81.26
2018-02-21T13:34:23.810Z,81.17
2018-02-21T13:35:33.007Z,80.98
2018-02-21T13:36:42.479Z,81.83
2018-02-21T13:37:52.482Z,81.45
2018-02-21T13:39:02.485Z,81.36
2018-02-21T13:40:12.493Z,82.31
2018-02-21T13:41:22.231Z,81.26
2018-02-21T13:42:31.959Z,81.55
2018-02-21T13:43:41.959Z,82.12
2018-02-21T13:44:51.692Z,82.78
2018-02-21T13:46:01.459Z,83.06
2018-02-21T13:47:11.457Z,83.25
2018-02-21T13:48:21.452Z,83.44
2018-02-21T13:49:31.185Z,83.44
2018-02-21T13:50:41.204Z,83.25
2018-02-21T13:51:50.983Z,82.5
2018-02-21T13:53:00.713Z,82.5
2018-02-21T13:54:10.443Z,83.25
2018-02-21T13:55:20.496Z,82.87
2018-02-21T13:56:30.354Z,82.5
2018-02-21T13:57:40.080Z,82.21
2018-02-21T13:58:50.071Z,82.26
2018-02-21T14:00:00.075Z,82.5
2018-02-21T14:01:09.820Z,83.06
2018-02-21T14:02:19.813Z,83.21
2018-02-21T14:03:29.812Z,83.53
2018-02-21T14:04:39.573Z,83.06
2018-02-21T14:05:49.649Z,83.53
2018-02-21T14:06:59.661Z,83.63
2018-02-21T14:08:09.393Z,82.83
2018-02-21T14:09:19.386Z,83.21
2018-02-21T14:10:29.119Z,83.49
2018-02-21T14:11:39.121Z,82.83
2018-02-21T14:12:49.129Z,82.83
2018-02-21T14:13:59.135Z,82.83
2018-02-21T14:15:09.230Z,83.68
2018-02-21T14:16:19.227Z,84.58
2018-02-21T14:17:29.252Z,84.2
2018-02-21T14:18:39.025Z,84.3
2018-02-21T14:19:48.754Z,85.34
2018-02-21T14:20:58.486Z,85.72
2018-02-21T14:22:08.481Z,86.38
2018-02-21T14:23:18.213Z,86.52
2018-02-21T14:24:28.212Z,87.18
2018-02-21T14:25:38.204Z,87.85
2018-02-21T14:26:48.196Z,88.04
2018-02-21T14:27:57.923Z,88.23
2018-02-21T14:29:07.972Z,88.32
2018-02-21T14:30:18.034Z,88.98
2018-02-21T14:31:28.032Z,89.17
2018-02-21T14:32:37.767Z,88.51
2018-02-21T14:33:46.965Z,88.51
2018-02-21T14:34:56.960Z,88.13
2018-02-21T14:36:06.693Z,88.79
2018-02-21T14:37:16.421Z,88.7
2018-02-21T14:38:26.414Z,89.17
2018-02-21T14:39:36.141Z,88.51
2018-02-21T14:40:46.136Z,88.32
2018-02-21T14:41:56.136Z,88.7
2018-02-21T14:43:06.143Z,89.26
2018-02-21T14:44:16.140Z,88.89
2018-02-21T14:45:26.141Z,89.26
2018-02-21T14:46:35.885Z,89.73
2018-02-21T14:47:45.622Z,89.31
2018-02-21T14:48:55.355Z,88.74
2018-02-21T14:50:05.085Z,88.55
2018-02-21T14:51:14.821Z,87.61
2018-02-21T14:52:24.834Z,88.42
2018-02-21T14:53:34.842Z,88.51
2018-02-21T14:54:44.840Z,88.51
2018-02-21T14:55:54.851Z,88.89
2018-02-21T14:57:04.328Z,89.17
2018-02-21T14:58:13.801Z,89.26
2018-02-21T14:59:23.536Z,89.36
2018-02-21T15:00:33.008Z,89.07
2018-02-21T15:01:42.803Z,89.36
2018-02-21T15:02:52.268Z,88.89
2018-02-21T15:04:01.998Z,89.92